sensor_id;sensor_type;location;lat;lon;timestamp;temperature;humidity
33645;DHT22;19986;48.190;16.366;2022-11-15T05:06:50;10.20;99.90
33645;DHT22;19986;48.190;16.366;2022-11-15T05:09:18;10.20;99.90
33645;DHT22;19986;48.190;16.366;2022-11-15T05:11:45;10.30;99.90
33645;DHT22;19986;48.190;16.366;2022-11-15T05:14:11;10.30;99.90
33645;DHT22;19986;48.190;16.366;2022-11-15T05:16:37;10.30;99.90
33645;DHT22;19986;48.190;16.366;2022-11-15T05:19:04;10.40;99.90
33645;DHT22;19986;48.190;16.366;2022-11-15T05:21:30;10.40;99.90
33645;DHT22;19986;48.190;16.366;2022-11-15T05:23:57;10.40;99.90
33645;DHT22;19986;48.190;16.366;2022-11-15T05:26:23;10.40;99.90
33645;DHT22;19986;48.190;16.366;2022-11-15T05:28:54;10.50;99.90
33645;DHT22;19986;48.190;16.366;2022-11-15T05:31:21;10.50;99.90
33645;DHT22;19986;48.190;16.366;2022-11-15T05:33:49;10.50;99.90
33645;DHT22;19986;48.190;16.366;2022-11-15T05:36:37;10.50;99.90
33645;DHT22;19986;48.190;16.366;2022-11-15T05:39:05;10.50;99.90
33645;DHT22;19986;48.190;16.366;2022-11-15T05:41:37;10.50;99.90
33645;DHT22;19986;48.190;16.366;2022-11-15T05:44:07;10.50;99.90
33645;DHT22;19986;48.190;16.366;2022-11-15T05:46:36;10.60;99.90
33645;DHT22;19986;48.190;16.366;2022-11-15T05:49:05;10.50;99.90
33645;DHT22;19986;48.190;16.366;2022-11-15T05:51:33;10.50;99.90
33645;DHT22;19986;48.190;16.366;2022-11-15T05:54:00;10.50;99.90
33645;DHT22;19986;48.190;16.366;2022-11-15T05:56:26;10.50;99.90
33645;DHT22;19986;48.190;16.366;2022-11-15T05:58:53;10.50;99.90
33645;DHT22;19986;48.190;16.366;2022-11-15T06:01:21;10.60;99.90
33645;DHT22;19986;48.190;16.366;2022-11-15T06:03:47;10.60;99.90
33645;DHT22;19986;48.190;16.366;2022-11-15T06:06:12;10.60;99.90
33645;DHT22;19986;48.190;16.366;2022-11-15T06:08:38;10.60;99.90
33645;DHT22;19986;48.190;16.366;2022-11-15T06:11:05;10.60;99.90
33645;DHT22;19986;48.190;16.366;2022-11-15T06:13:32;10.60;99.90
33645;DHT22;19986;48.190;16.366;2022-11-15T06:15:58;10.60;99.90
33645;DHT22;19986;48.190;16.366;2022-11-15T06:18:24;10.60;99.90
33645;DHT22;19986;48.190;16.366;2022-11-15T06:20:50;10.70;99.90
33645;DHT22;19986;48.190;16.366;2022-11-15T06:23:16;10.70;99.90
33645;DHT22;19986;48.190;16.366;2022-11-15T06:25:42;10.70;99.90
33645;DHT22;19986;48.190;16.366;2022-11-15T06:28:08;10.70;99.90
33645;DHT22;19986;48.190;16.366;2022-11-15T06:30:34;10.70;99.90
33645;DHT22;19986;48.190;16.366;2022-11-15T06:33:04;10.80;99.90
33645;DHT22;19986;48.190;16.366;2022-11-15T06:35:33;10.80;99.90
33645;DHT22;19986;48.190;16.366;2022-11-15T06:38:08;10.80;99.90
33645;DHT22;19986;48.190;16.366;2022-11-15T06:40:38;10.80;99.90
33645;DHT22;19986;48.190;16.366;2022-11-15T06:43:05;10.80;99.90
33645;DHT22;19986;48.190;16.366;2022-11-15T06:45:31;10.80;99.90
33645;DHT22;19986;48.190;16.366;2022-11-15T06:47:58;10.80;99.90
33645;DHT22;19986;48.190;16.366;2022-11-15T06:50:24;10.70;99.90
33645;DHT22;19986;48.190;16.366;2022-11-15T06:52:50;10.70;99.90
33645;DHT22;19986;48.190;16.366;2022-11-15T06:55:16;10.60;99.90
33645;DHT22;19986;48.190;16.366;2022-11-15T06:57:49;10.60;99.90
33645;DHT22;19986;48.190;16.366;2022-11-15T07:00:20;10.60;99.90
33645;DHT22;19986;48.190;16.366;2022-11-15T07:02:47;10.60;99.90
33645;DHT22;19986;48.190;16.366;2022-11-15T07:05:14;10.60;99.90
33645;DHT22;19986;48.190;16.366;2022-11-15T07:07:40;10.60;99.90
33645;DHT22;19986;48.190;16.366;2022-11-15T07:10:06;10.60;99.90
33645;DHT22;19986;48.190;16.366;2022-11-15T07:12:33;10.60;99.90
33645;DHT22;19986;48.190;16.366;2022-11-15T07:14:58;10.70;99.90
33645;DHT22;19986;48.190;16.366;2022-11-15T07:17:24;10.70;99.90
33645;DHT22;19986;48.190;16.366;2022-11-15T07:19:50;10.70;99.90
33645;DHT22;19986;48.190;16.366;2022-11-15T07:22:16;10.70;99.90
33645;DHT22;19986;48.190;16.366;2022-11-15T07:24:42;10.70;99.90
33645;DHT22;19986;48.190;16.366;2022-11-15T07:27:07;10.70;99.90
33645;DHT22;19986;48.190;16.366;2022-11-15T07:29:33;10.70;99.90
33645;DHT22;19986;48.190;16.366;2022-11-15T07:31:59;10.80;99.90
33645;DHT22;19986;48.190;16.366;2022-11-15T07:34:25;10.70;99.90
33645;DHT22;19986;48.190;16.366;2022-11-15T07:36:51;10.80;99.90
33645;DHT22;19986;48.190;16.366;2022-11-15T07:39:17;10.80;99.90
33645;DHT22;19986;48.190;16.366;2022-11-15T07:41:42;10.80;99.90
33645;DHT22;19986;48.190;16.366;2022-11-15T07:44:09;10.80;99.90
33645;DHT22;19986;48.190;16.366;2022-11-15T07:46:34;10.80;99.90
33645;DHT22;19986;48.190;16.366;2022-11-15T07:49:00;11.00;99.90
33645;DHT22;19986;48.190;16.366;2022-11-15T07:51:26;11.00;99.90
33645;DHT22;19986;48.190;16.366;2022-11-15T07:53:53;11.00;99.90
33645;DHT22;19986;48.190;16.366;2022-11-15T07:56:18;11.00;99.90
33645;DHT22;19986;48.190;16.366;2022-11-15T07:58:46;11.00;99.90
33645;DHT22;19986;48.190;16.366;2022-11-15T08:01:12;11.00;99.90
33645;DHT22;19986;48.190;16.366;2022-11-15T08:03:39;11.00;99.90
33645;DHT22;19986;48.190;16.366;2022-11-15T08:06:05;11.10;99.90
33645;DHT22;19986;48.190;16.366;2022-11-15T08:08:31;11.10;99.90
33645;DHT22;19986;48.190;16.366;2022-11-15T08:11:00;11.00;99.90
33645;DHT22;19986;48.190;16.366;2022-11-15T08:13:26;11.00;99.90
33645;DHT22;19986;48.190;16.366;2022-11-15T08:15:59;11.00;99.90
33645;DHT22;19986;48.190;16.366;2022-11-15T08:18:26;10.90;99.90
33645;DHT22;19986;48.190;16.366;2022-11-15T08:20:51;10.90;99.90
33645;DHT22;19986;48.190;16.366;2022-11-15T08:23:17;10.90;99.90
33645;DHT22;19986;48.190;16.366;2022-11-15T08:25:43;10.90;99.90
33645;DHT22;19986;48.190;16.366;2022-11-15T08:28:10;10.90;99.90
33645;DHT22;19986;48.190;16.366;2022-11-15T08:30:41;10.90;99.90
33645;DHT22;19986;48.190;16.366;2022-11-15T08:33:11;10.90;99.90
33645;DHT22;19986;48.190;16.366;2022-11-15T08:35:40;10.90;99.90
33645;DHT22;19986;48.190;16.366;2022-11-15T08:38:06;10.90;99.90
33645;DHT22;19986;48.190;16.366;2022-11-15T08:40:32;10.90;99.90
33645;DHT22;19986;48.190;16.366;2022-11-15T08:42:57;10.90;99.90
33645;DHT22;19986;48.190;16.366;2022-11-15T08:45:24;10.90;99.90
33645;DHT22;19986;48.190;16.366;2022-11-15T08:47:50;10.90;99.90
33645;DHT22;19986;48.190;16.366;2022-11-15T08:50:16;10.90;99.90
33645;DHT22;19986;48.190;16.366;2022-11-15T08:52:42;10.90;99.90
33645;DHT22;19986;48.190;16.366;2022-11-15T08:55:08;10.90;99.90
33645;DHT22;19986;48.190;16.366;2022-11-15T08:57:35;10.90;99.90
33645;DHT22;19986;48.190;16.366;2022-11-15T09:00:01;10.90;99.90
33645;DHT22;19986;48.190;16.366;2022-11-15T09:02:26;10.90;99.90
33645;DHT22;19986;48.190;16.366;2022-11-15T09:04:52;11.00;99.90
33645;DHT22;19986;48.190;16.366;2022-11-15T09:07:18;11.10;99.90
33645;DHT22;19986;48.190;16.366;2022-11-15T09:09:44;11.10;99.90
33645;DHT22;19986;48.190;16.366;2022-11-15T09:12:10;11.10;99.90
33645;DHT22;19986;48.190;16.366;2022-11-15T09:14:36;11.20;99.90
33645;DHT22;19986;48.190;16.366;2022-11-15T09:17:02;11.30;99.90
33645;DHT22;19986;48.190;16.366;2022-11-15T09:19:27;11.20;99.90
33645;DHT22;19986;48.190;16.366;2022-11-15T09:21:53;11.20;99.90
33645;DHT22;19986;48.190;16.366;2022-11-15T09:24:20;11.10;99.90
33645;DHT22;19986;48.190;16.366;2022-11-15T09:26:46;11.00;99.90
33645;DHT22;19986;48.190;16.366;2022-11-15T09:29:12;11.10;99.90
33645;DHT22;19986;48.190;16.366;2022-11-15T09:31:38;11.00;99.90
33645;DHT22;19986;48.190;16.366;2022-11-15T09:34:04;11.10;99.90
33645;DHT22;19986;48.190;16.366;2022-11-15T09:36:30;11.00;99.90
33645;DHT22;19986;48.190;16.366;2022-11-15T09:38:58;11.00;99.90
33645;DHT22;19986;48.190;16.366;2022-11-15T09:49:55;11.10;99.90
33645;DHT22;19986;48.190;16.366;2022-11-15T09:52:23;11.00;99.90
33645;DHT22;19986;48.190;16.366;2022-11-15T09:54:50;11.10;99.90
33645;DHT22;19986;48.190;16.366;2022-11-15T09:57:30;11.10;99.90
33645;DHT22;19986;48.190;16.366;2022-11-15T10:05:12;11.00;99.90
33645;DHT22;19986;48.190;16.366;2022-11-15T10:10:43;11.00;99.90
33645;DHT22;19986;48.190;16.366;2022-11-15T10:13:37;11.00;99.90
33645;DHT22;19986;48.190;16.366;2022-11-15T10:22:00;10.90;99.90
33645;DHT22;19986;48.190;16.366;2022-11-15T10:24:34;11.00;99.90
33645;DHT22;19986;48.190;16.366;2022-11-15T10:27:00;11.00;99.90
33645;DHT22;19986;48.190;16.366;2022-11-15T10:29:31;11.00;99.90
33645;DHT22;19986;48.190;16.366;2022-11-15T10:31:57;11.10;99.90
33645;DHT22;19986;48.190;16.366;2022-11-15T10:34:23;11.10;99.90
33645;DHT22;19986;48.190;16.366;2022-11-15T10:36:58;11.10;99.90
33645;DHT22;19986;48.190;16.366;2022-11-15T10:39:26;11.10;99.90
33645;DHT22;19986;48.190;16.366;2022-11-15T10:41:52;11.10;99.90
33645;DHT22;19986;48.190;16.366;2022-11-15T10:44:51;11.10;99.90
33645;DHT22;19986;48.190;16.366;2022-11-15T10:47:27;11.10;99.90
33645;DHT22;19986;48.190;16.366;2022-11-15T10:50:00;11.10;99.90
33645;DHT22;19986;48.190;16.366;2022-11-15T10:52:27;11.10;99.90
33645;DHT22;19986;48.190;16.366;2022-11-15T10:57:32;11.10;99.90
33645;DHT22;19986;48.190;16.366;2022-11-15T11:02:45;11.10;99.90
33645;DHT22;19986;48.190;16.366;2022-11-15T11:05:31;11.10;99.90
33645;DHT22;19986;48.190;16.366;2022-11-15T11:08:09;11.20;99.90
33645;DHT22;19986;48.190;16.366;2022-11-15T11:10:58;11.20;99.90
33645;DHT22;19986;48.190;16.366;2022-11-15T11:13:30;11.30;99.90
33645;DHT22;19986;48.190;16.366;2022-11-15T11:16:14;11.30;99.90
33645;DHT22;19986;48.190;16.366;2022-11-15T11:27:08;11.40;99.90
33645;DHT22;19986;48.190;16.366;2022-11-15T11:35:30;11.60;99.90
33645;DHT22;19986;48.190;16.366;2022-11-15T11:43:26;11.60;99.90
33645;DHT22;19986;48.190;16.366;2022-11-15T11:51:47;11.80;99.90
33645;DHT22;19986;48.190;16.366;2022-11-15T11:54:22;11.80;99.90
33645;DHT22;19986;48.190;16.366;2022-11-15T11:56:50;11.80;99.90
33645;DHT22;19986;48.190;16.366;2022-11-15T11:59:54;11.80;99.90
33645;DHT22;19986;48.190;16.366;2022-11-15T12:02:21;11.80;99.90
33645;DHT22;19986;48.190;16.366;2022-11-15T12:04:53;11.80;99.90
33645;DHT22;19986;48.190;16.366;2022-11-15T12:07:31;11.80;99.90
33645;DHT22;19986;48.190;16.366;2022-11-15T12:12:50;11.80;99.90
33645;DHT22;19986;48.190;16.366;2022-11-15T12:15:31;11.80;99.90
33645;DHT22;19986;48.190;16.366;2022-11-15T12:18:00;11.80;99.90
33645;DHT22;19986;48.190;16.366;2022-11-15T12:20:32;11.80;99.90
33645;DHT22;19986;48.190;16.366;2022-11-15T12:25:53;11.80;99.90
33645;DHT22;19986;48.190;16.366;2022-11-15T12:31:24;11.90;99.90
33645;DHT22;19986;48.190;16.366;2022-11-15T12:33:56;12.00;99.90
33645;DHT22;19986;48.190;16.366;2022-11-15T12:38:57;12.10;99.90
33645;DHT22;19986;48.190;16.366;2022-11-15T12:41:26;12.20;99.90
33645;DHT22;19986;48.190;16.366;2022-11-15T12:43:53;12.10;99.90
33645;DHT22;19986;48.190;16.366;2022-11-15T12:46:21;12.10;99.90
33645;DHT22;19986;48.190;16.366;2022-11-15T12:48:51;12.10;99.90
33645;DHT22;19986;48.190;16.366;2022-11-15T12:51:20;12.20;99.90
33645;DHT22;19986;48.190;16.366;2022-11-15T12:53:46;12.20;99.90
33645;DHT22;19986;48.190;16.366;2022-11-15T13:01:10;12.20;99.90
33645;DHT22;19986;48.190;16.366;2022-11-15T13:07:01;12.20;99.90
33645;DHT22;19986;48.190;16.366;2022-11-15T13:17:53;12.00;99.90
33645;DHT22;19986;48.190;16.366;2022-11-15T13:20:32;12.10;99.90
33645;DHT22;19986;48.190;16.366;2022-11-15T13:23:13;12.00;99.90
33645;DHT22;19986;48.190;16.366;2022-11-15T13:28:49;12.10;99.90
33645;DHT22;19986;48.190;16.366;2022-11-15T13:33:57;12.10;99.90
33645;DHT22;19986;48.190;16.366;2022-11-15T13:36:29;12.10;99.90
33645;DHT22;19986;48.190;16.366;2022-11-15T13:39:05;12.10;99.90
33645;DHT22;19986;48.190;16.366;2022-11-15T13:41:33;12.10;99.90
33645;DHT22;19986;48.190;16.366;2022-11-15T13:44:01;12.10;99.90
33645;DHT22;19986;48.190;16.366;2022-11-15T13:46:28;12.10;99.90
33645;DHT22;19986;48.190;16.366;2022-11-15T13:49:00;12.10;99.90
33645;DHT22;19986;48.190;16.366;2022-11-15T13:56:45;12.10;99.90
33645;DHT22;19986;48.190;16.366;2022-11-15T14:00:05;12.00;99.90
33645;DHT22;19986;48.190;16.366;2022-11-15T14:02:12;12.00;99.90
33645;DHT22;19986;48.190;16.366;2022-11-15T14:04:50;11.90;99.90
33645;DHT22;19986;48.190;16.366;2022-11-15T14:07:19;11.90;99.90
33645;DHT22;19986;48.190;16.366;2022-11-15T14:09:46;12.00;99.90
33645;DHT22;19986;48.190;16.366;2022-11-15T14:12:32;11.90;99.90
33645;DHT22;19986;48.190;16.366;2022-11-15T14:15:17;11.90;99.90
33645;DHT22;19986;48.190;16.366;2022-11-15T14:17:43;12.00;99.90
33645;DHT22;19986;48.190;16.366;2022-11-15T14:20:37;12.00;99.90
33645;DHT22;19986;48.190;16.366;2022-11-15T14:23:18;12.00;99.90
33645;DHT22;19986;48.190;16.366;2022-11-15T14:25:53;12.00;99.90
33645;DHT22;19986;48.190;16.366;2022-11-15T14:30:49;12.00;99.90
33645;DHT22;19986;48.190;16.366;2022-11-15T14:33:31;12.10;99.90
33645;DHT22;19986;48.190;16.366;2022-11-15T14:36:20;12.20;99.90
33645;DHT22;19986;48.190;16.366;2022-11-15T14:38:47;12.10;99.90
33645;DHT22;19986;48.190;16.366;2022-11-15T14:41:24;12.10;99.90
33645;DHT22;19986;48.190;16.366;2022-11-15T14:43:51;12.10;99.90
33645;DHT22;19986;48.190;16.366;2022-11-15T14:46:17;12.20;99.90
33645;DHT22;19986;48.190;16.366;2022-11-15T14:48:43;12.30;99.90
33645;DHT22;19986;48.190;16.366;2022-11-15T14:51:15;12.30;99.90
33645;DHT22;19986;48.190;16.366;2022-11-15T14:53:42;12.30;99.90
33645;DHT22;19986;48.190;16.366;2022-11-15T14:56:09;12.20;99.90
33645;DHT22;19986;48.190;16.366;2022-11-15T14:58:35;12.30;99.90
33645;DHT22;19986;48.190;16.366;2022-11-15T15:01:08;12.30;99.90
33645;DHT22;19986;48.190;16.366;2022-11-15T15:03:35;12.30;99.90
33645;DHT22;19986;48.190;16.366;2022-11-15T15:06:00;12.30;99.90
33645;DHT22;19986;48.190;16.366;2022-11-15T15:08:26;12.30;99.90
33645;DHT22;19986;48.190;16.366;2022-11-15T15:10:52;12.30;99.90
33645;DHT22;19986;48.190;16.366;2022-11-15T15:13:21;12.30;99.90
33645;DHT22;19986;48.190;16.366;2022-11-15T15:15:48;12.20;99.90
33645;DHT22;19986;48.190;16.366;2022-11-15T15:18:14;12.20;99.90
33645;DHT22;19986;48.190;16.366;2022-11-15T15:20:42;12.20;99.90
33645;DHT22;19986;48.190;16.366;2022-11-15T15:23:17;12.30;99.90
33645;DHT22;19986;48.190;16.366;2022-11-15T15:25:44;12.30;99.90
33645;DHT22;19986;48.190;16.366;2022-11-15T15:28:11;12.30;99.90
33645;DHT22;19986;48.190;16.366;2022-11-15T15:30:37;12.30;99.90
33645;DHT22;19986;48.190;16.366;2022-11-15T15:33:03;12.30;99.90
33645;DHT22;19986;48.190;16.366;2022-11-15T15:35:30;12.40;99.90
33645;DHT22;19986;48.190;16.366;2022-11-15T15:37:57;12.40;99.90
33645;DHT22;19986;48.190;16.366;2022-11-15T15:40:24;12.40;99.90
33645;DHT22;19986;48.190;16.366;2022-11-15T15:42:50;12.30;99.90
33645;DHT22;19986;48.190;16.366;2022-11-15T15:45:17;12.30;99.90
33645;DHT22;19986;48.190;16.366;2022-11-15T15:47:45;12.40;99.90
33645;DHT22;19986;48.190;16.366;2022-11-15T15:50:21;12.30;99.90
33645;DHT22;19986;48.190;16.366;2022-11-15T15:52:49;12.40;99.90
33645;DHT22;19986;48.190;16.366;2022-11-15T15:55:15;12.30;99.90
33645;DHT22;19986;48.190;16.366;2022-11-15T15:57:41;12.30;99.90
33645;DHT22;19986;48.190;16.366;2022-11-15T16:00:09;12.30;99.90
33645;DHT22;19986;48.190;16.366;2022-11-15T16:02:35;12.30;99.90
33645;DHT22;19986;48.190;16.366;2022-11-15T16:05:00;12.30;99.90
33645;DHT22;19986;48.190;16.366;2022-11-15T16:07:26;12.30;99.90
33645;DHT22;19986;48.190;16.366;2022-11-15T16:09:55;12.30;99.90
33645;DHT22;19986;48.190;16.366;2022-11-15T16:12:33;12.30;99.90
33645;DHT22;19986;48.190;16.366;2022-11-15T16:15:01;12.30;99.90
33645;DHT22;19986;48.190;16.366;2022-11-15T16:17:31;12.20;99.90
33645;DHT22;19986;48.190;16.366;2022-11-15T16:20:00;12.20;99.90
33645;DHT22;19986;48.190;16.366;2022-11-15T16:22:26;12.20;99.90
33645;DHT22;19986;48.190;16.366;2022-11-15T16:24:54;12.20;99.90
33645;DHT22;19986;48.190;16.366;2022-11-15T16:27:21;12.20;99.90
33645;DHT22;19986;48.190;16.366;2022-11-15T16:29:49;12.20;99.90
33645;DHT22;19986;48.190;16.366;2022-11-15T16:32:16;12.20;99.90
33645;DHT22;19986;48.190;16.366;2022-11-15T16:34:42;12.20;99.90
33645;DHT22;19986;48.190;16.366;2022-11-15T16:37:23;12.20;99.90
33645;DHT22;19986;48.190;16.366;2022-11-15T16:39:51;12.20;99.90
33645;DHT22;19986;48.190;16.366;2022-11-15T16:42:16;12.10;99.90
33645;DHT22;19986;48.190;16.366;2022-11-15T16:44:42;12.10;99.90
33645;DHT22;19986;48.190;16.366;2022-11-15T16:47:17;12.10;99.90
33645;DHT22;19986;48.190;16.366;2022-11-15T16:49:44;12.10;99.90
33645;DHT22;19986;48.190;16.366;2022-11-15T16:52:10;12.10;99.90
33645;DHT22;19986;48.190;16.366;2022-11-15T16:54:36;12.10;99.90
33645;DHT22;19986;48.190;16.366;2022-11-15T16:57:02;12.10;99.90
33645;DHT22;19986;48.190;16.366;2022-11-15T16:59:28;12.10;99.90
33645;DHT22;19986;48.190;16.366;2022-11-15T17:01:56;12.10;99.90
33645;DHT22;19986;48.190;16.366;2022-11-15T17:04:22;12.10;99.90
33645;DHT22;19986;48.190;16.366;2022-11-15T17:06:48;12.10;99.90
33645;DHT22;19986;48.190;16.366;2022-11-15T17:09:20;12.20;99.90
33645;DHT22;19986;48.190;16.366;2022-11-15T17:11:49;12.20;99.90
33645;DHT22;19986;48.190;16.366;2022-11-15T17:14:15;12.20;99.90
33645;DHT22;19986;48.190;16.366;2022-11-15T17:16:42;12.20;99.90
33645;DHT22;19986;48.190;16.366;2022-11-15T17:19:18;12.20;99.90
33645;DHT22;19986;48.190;16.366;2022-11-15T17:21:46;12.20;99.90
33645;DHT22;19986;48.190;16.366;2022-11-15T17:24:14;12.20;99.90
33645;DHT22;19986;48.190;16.366;2022-11-15T17:26:40;12.20;99.90
33645;DHT22;19986;48.190;16.366;2022-11-15T17:29:08;12.30;99.90
33645;DHT22;19986;48.190;16.366;2022-11-15T17:31:35;12.30;99.90
33645;DHT22;19986;48.190;16.366;2022-11-15T17:34:02;12.30;99.90
33645;DHT22;19986;48.190;16.366;2022-11-15T17:36:28;12.30;99.90
33645;DHT22;19986;48.190;16.366;2022-11-15T17:38:55;12.30;99.90
33645;DHT22;19986;48.190;16.366;2022-11-15T17:41:22;12.20;99.90
33645;DHT22;19986;48.190;16.366;2022-11-15T17:43:48;12.30;99.90
33645;DHT22;19986;48.190;16.366;2022-11-15T17:46:17;12.30;99.90
33645;DHT22;19986;48.190;16.366;2022-11-15T17:48:45;12.20;99.90
33645;DHT22;19986;48.190;16.366;2022-11-15T17:51:15;12.30;99.90
33645;DHT22;19986;48.190;16.366;2022-11-15T17:53:45;12.20;99.90
33645;DHT22;19986;48.190;16.366;2022-11-15T17:56:13;12.20;99.90
33645;DHT22;19986;48.190;16.366;2022-11-15T17:58:40;12.20;99.90
33645;DHT22;19986;48.190;16.366;2022-11-15T18:01:08;12.20;99.90
33645;DHT22;19986;48.190;16.366;2022-11-15T18:03:38;12.20;99.90
33645;DHT22;19986;48.190;16.366;2022-11-15T18:06:05;12.30;99.90
33645;DHT22;19986;48.190;16.366;2022-11-15T18:08:31;12.20;99.90
33645;DHT22;19986;48.190;16.366;2022-11-15T18:11:18;12.20;99.90
33645;DHT22;19986;48.190;16.366;2022-11-15T18:13:48;12.20;99.90
33645;DHT22;19986;48.190;16.366;2022-11-15T18:16:16;12.10;99.90
33645;DHT22;19986;48.190;16.366;2022-11-15T18:18:43;12.10;99.90
33645;DHT22;19986;48.190;16.366;2022-11-15T18:21:15;12.10;99.90
33645;DHT22;19986;48.190;16.366;2022-11-15T18:23:42;12.10;99.90
33645;DHT22;19986;48.190;16.366;2022-11-15T18:26:13;12.10;99.90
33645;DHT22;19986;48.190;16.366;2022-11-15T18:28:43;12.10;99.90
33645;DHT22;19986;48.190;16.366;2022-11-15T18:31:17;12.10;99.90
33645;DHT22;19986;48.190;16.366;2022-11-15T18:33:44;12.10;99.90
33645;DHT22;19986;48.190;16.366;2022-11-15T18:36:12;12.10;99.90
33645;DHT22;19986;48.190;16.366;2022-11-15T18:38:39;12.10;99.90
33645;DHT22;19986;48.190;16.366;2022-11-15T18:41:11;12.20;99.90
33645;DHT22;19986;48.190;16.366;2022-11-15T18:43:38;12.10;99.90
33645;DHT22;19986;48.190;16.366;2022-11-15T18:46:13;12.10;99.90
33645;DHT22;19986;48.190;16.366;2022-11-15T18:48:43;12.00;99.90
33645;DHT22;19986;48.190;16.366;2022-11-15T18:51:11;12.10;99.90
33645;DHT22;19986;48.190;16.366;2022-11-15T18:53:38;12.00;99.90
33645;DHT22;19986;48.190;16.366;2022-11-15T18:56:10;12.10;99.90
33645;DHT22;19986;48.190;16.366;2022-11-15T18:58:39;12.10;99.90
33645;DHT22;19986;48.190;16.366;2022-11-15T19:01:08;12.10;99.90
33645;DHT22;19986;48.190;16.366;2022-11-15T19:03:40;12.10;99.90
33645;DHT22;19986;48.190;16.366;2022-11-15T19:06:13;12.10;99.90
33645;DHT22;19986;48.190;16.366;2022-11-15T19:08:42;12.10;99.90
33645;DHT22;19986;48.190;16.366;2022-11-15T19:11:19;12.10;99.90
33645;DHT22;19986;48.190;16.366;2022-11-15T19:13:46;12.10;99.90
33645;DHT22;19986;48.190;16.366;2022-11-15T19:16:14;12.00;99.90
33645;DHT22;19986;48.190;16.366;2022-11-15T19:18:41;12.00;99.90
33645;DHT22;19986;48.190;16.366;2022-11-15T19:21:09;12.10;99.90
33645;DHT22;19986;48.190;16.366;2022-11-15T19:23:37;12.10;99.90
33645;DHT22;19986;48.190;16.366;2022-11-15T19:26:05;12.10;99.90
33645;DHT22;19986;48.190;16.366;2022-11-15T19:28:32;12.10;99.90
33645;DHT22;19986;48.190;16.366;2022-11-15T19:31:05;12.20;99.90
33645;DHT22;19986;48.190;16.366;2022-11-15T19:33:36;12.30;99.90
33645;DHT22;19986;48.190;16.366;2022-11-15T19:36:05;12.20;99.90
33645;DHT22;19986;48.190;16.366;2022-11-15T19:38:32;12.10;99.90
33645;DHT22;19986;48.190;16.366;2022-11-15T19:41:00;12.10;99.90
33645;DHT22;19986;48.190;16.366;2022-11-15T19:43:27;12.10;99.90
33645;DHT22;19986;48.190;16.366;2022-11-15T19:45:59;12.20;99.90
33645;DHT22;19986;48.190;16.366;2022-11-15T19:48:26;12.20;99.90
33645;DHT22;19986;48.190;16.366;2022-11-15T19:50:53;12.10;99.90
33645;DHT22;19986;48.190;16.366;2022-11-15T19:53:19;12.00;99.90
33645;DHT22;19986;48.190;16.366;2022-11-15T19:55:59;12.10;99.90
33645;DHT22;19986;48.190;16.366;2022-11-15T19:58:27;12.00;99.90
33645;DHT22;19986;48.190;16.366;2022-11-15T20:01:05;12.00;99.90
33645;DHT22;19986;48.190;16.366;2022-11-15T20:03:32;12.00;99.90
33645;DHT22;19986;48.190;16.366;2022-11-15T20:06:04;12.00;99.90
33645;DHT22;19986;48.190;16.366;2022-11-15T20:08:31;12.00;99.90
33645;DHT22;19986;48.190;16.366;2022-11-15T20:10:58;12.10;99.90
33645;DHT22;19986;48.190;16.366;2022-11-15T20:13:25;12.10;99.90
33645;DHT22;19986;48.190;16.366;2022-11-15T20:15:52;12.10;99.90
33645;DHT22;19986;48.190;16.366;2022-11-15T20:18:18;12.10;99.90
33645;DHT22;19986;48.190;16.366;2022-11-15T20:20:45;12.10;99.90
33645;DHT22;19986;48.190;16.366;2022-11-15T20:23:11;12.20;99.90
33645;DHT22;19986;48.190;16.366;2022-11-15T20:25:39;12.30;99.90
33645;DHT22;19986;48.190;16.366;2022-11-15T20:28:06;12.30;99.90
33645;DHT22;19986;48.190;16.366;2022-11-15T20:30:33;12.20;99.90
33645;DHT22;19986;48.190;16.366;2022-11-15T20:32:58;12.30;99.90
33645;DHT22;19986;48.190;16.366;2022-11-15T20:35:24;12.30;99.90
33645;DHT22;19986;48.190;16.366;2022-11-15T20:37:51;12.40;99.90
33645;DHT22;19986;48.190;16.366;2022-11-15T20:40:17;12.40;99.90
33645;DHT22;19986;48.190;16.366;2022-11-15T20:42:46;12.40;99.90
33645;DHT22;19986;48.190;16.366;2022-11-15T20:45:12;12.40;99.90
33645;DHT22;19986;48.190;16.366;2022-11-15T20:47:38;12.40;99.90
33645;DHT22;19986;48.190;16.366;2022-11-15T20:50:04;12.50;99.90
33645;DHT22;19986;48.190;16.366;2022-11-15T20:52:31;12.50;99.90
33645;DHT22;19986;48.190;16.366;2022-11-15T20:54:58;12.50;99.90
33645;DHT22;19986;48.190;16.366;2022-11-15T20:57:24;12.50;99.90
33645;DHT22;19986;48.190;16.366;2022-11-15T20:59:50;12.60;99.90
